Time;durP1;ratioP1;P1;durP2;ratioP2;P2;SDS_P1;SDS_P2;PMS_P1;PMS_P2;Temp;Humidity;BMP_temperature;BMP_pressure;BME280_temperature;BME280_humidity;BME280_pressure;Samples;Min_cycle;Max_cycle;Signal;HPM_P1;HPM_P2
2023/01/27 00:01:50;;;;;;;2.55;0.93;;;;;;;2.68;51.73;102617.25;4981738;28;20038;-76
2023/01/27 00:04:15;;;;;;;3.10;0.63;;;;;;;2.24;52.41;102614.59;4978283;28;20038;-76
2023/01/27 00:06:41;;;;;;;4.43;0.82;;;;;;;2.57;51.72;102613.56;4964550;28;20092;-76
2023/01/27 00:09:06;;;;;;;1.40;0.60;;;;;;;2.49;52.21;102621.16;4980165;28;20035;-77
2023/01/27 00:14:16;;;;;;;4.10;0.68;;;;;;;2.27;52.47;102619.81;4977643;28;20030;-75
2023/01/27 00:16:41;;;;;;;2.22;0.63;;;;;;;2.44;51.78;102619.31;4982325;28;20034;-77
2023/01/27 00:19:06;;;;;;;1.65;0.50;;;;;;;2.34;52.46;102616.53;4941547;28;20417;-75
2023/01/27 00:24:34;;;;;;;3.33;0.30;;;;;;;2.14;53.00;102628.97;4977321;28;20404;-75
2023/01/27 00:27:00;;;;;;;1.83;0.30;;;;;;;2.21;52.46;102631.69;4962106;28;20038;-76
2023/01/27 00:29:26;;;;;;;0.65;0.30;;;;;;;2.05;52.79;102635.63;4978000;28;20058;-75
2023/01/27 00:34:35;;;;;;;1.90;0.40;;;;;;;2.10;52.42;102646.94;4981239;28;20169;-75
2023/01/27 00:37:03;;;;;;;2.90;0.28;;;;;;;2.21;51.83;102647.19;4982188;28;20146;-75
2023/01/27 00:39:31;;;;;;;10.57;0.40;;;;;;;2.05;51.99;102649.41;4964447;28;20042;-76
2023/01/27 00:41:57;;;;;;;0.80;0.20;;;;;;;1.93;52.09;102655.13;4983426;28;20335;-74
2023/01/27 00:44:22;;;;;;;1.42;0.20;;;;;;;1.87;52.01;102660.13;4963910;28;20046;-76
2023/01/27 00:46:48;;;;;;;3.00;0.30;;;;;;;2.10;51.31;102652.94;4984093;28;20173;-75
2023/01/27 00:49:14;;;;;;;5.47;0.30;;;;;;;2.17;51.19;102653.09;4981894;28;20180;-76
2023/01/27 00:51:40;;;;;;;1.77;0.20;;;;;;;2.21;50.74;102650.63;4981931;28;20180;-76
2023/01/27 00:54:06;;;;;;;4.25;0.75;;;;;;;2.24;50.82;102648.13;4983428;28;20475;-75
2023/01/27 00:56:32;;;;;;;0.47;0.20;;;;;;;2.29;51.12;102651.69;4982283;28;20046;-76
2023/01/27 00:58:57;;;;;;;2.17;0.52;;;;;;;2.14;51.18;102652.19;4980433;28;20065;-75
2023/01/27 01:01:22;;;;;;;1.95;0.30;;;;;;;1.94;51.79;102674.06;4983265;28;20149;-77
2023/01/27 01:03:48;;;;;;;2.13;0.20;;;;;;;1.89;51.73;102671.38;4982531;28;20404;-76
2023/01/27 01:06:15;;;;;;;3.88;0.73;;;;;;;2.17;50.83;102674.59;4983636;28;20053;-75
2023/01/27 01:08:41;;;;;;;6.85;0.30;;;;;;;1.93;51.34;102673.19;4979874;28;20065;-77
2023/01/27 01:11:12;;;;;;;5.57;0.20;;;;;;;2.07;51.11;102672.66;4980510;28;20034;-77
2023/01/27 01:13:38;;;;;;;3.63;1.10;;;;;;;1.87;50.91;102680.75;4980304;28;20069;-76
2023/01/27 01:16:05;;;;;;;2.40;0.75;;;;;;;1.91;50.80;102681.72;4982748;28;20532;-76
2023/01/27 01:18:30;;;;;;;1.60;0.30;;;;;;;1.82;50.46;102681.47;4980464;28;20030;-75
2023/01/27 01:20:56;;;;;;;2.83;0.93;;;;;;;2.00;50.22;102681.06;4982744;28;20057;-75
2023/01/27 01:23:21;;;;;;;3.05;0.22;;;;;;;1.98;50.24;102678.47;4966679;28;20050;-78
2023/01/27 01:25:55;;;;;;;1.23;0.60;;;;;;;2.13;50.11;102685.69;4980552;28;20084;-77
2023/01/27 01:28:21;;;;;;;4.43;0.30;;;;;;;2.14;49.42;102687.44;4979843;28;20034;-76
2023/01/27 01:30:47;;;;;;;4.00;0.30;;;;;;;1.89;50.11;102689.41;4982603;28;20065;-76
2023/01/27 01:33:13;;;;;;;1.83;0.20;;;;;;;1.98;49.22;102682.75;4984064;28;20058;-76
2023/01/27 01:35:38;;;;;;;0.93;0.30;;;;;;;2.08;48.44;102690.72;4979548;28;20125;-77
2023/01/27 01:38:04;;;;;;;1.23;0.30;;;;;;;2.08;48.53;102684.69;4984077;28;20358;-76
2023/01/27 01:40:30;;;;;;;0.80;0.30;;;;;;;2.04;48.76;102699.25;4984118;28;20038;-74
2023/01/27 01:43:01;;;;;;;0.93;0.25;;;;;;;1.85;49.97;102691.88;4998186;28;20049;-75
2023/01/27 01:45:30;;;;;;;2.38;0.40;;;;;;;1.54;50.57;102679.91;4996978;28;20080;-74
2023/01/27 01:48:00;;;;;;;3.38;0.38;;;;;;;1.57;50.38;102685.13;4996433;28;20113;-75
2023/01/27 01:50:25;;;;;;;1.20;0.47;;;;;;;1.50;50.29;102689.25;4998149;28;20040;-75
2023/01/27 01:52:53;;;;;;;8.45;0.43;;;;;;;1.94;49.12;102700.72;4997872;28;20049;-74
2023/01/27 01:55:19;;;;;;;1.38;0.30;;;;;;;2.04;48.54;102695.78;5000189;28;20033;-75
2023/01/27 01:57:45;;;;;;;0.70;0.20;;;;;;;1.86;48.76;102703.91;4999286;28;20323;-75
2023/01/27 02:00:12;;;;;;;0.95;0.20;;;;;;;2.26;48.05;102698.03;5002745;28;20048;-76
2023/01/27 02:02:42;;;;;;;3.05;0.30;;;;;;;2.24;47.39;102704.91;4999775;28;20030;-76
2023/01/27 02:05:23;;;;;;;0.52;0.15;;;;;;;2.18;46.94;102702.16;5000847;28;20288;-75
2023/01/27 02:08:00;;;;;;;2.45;0.35;;;;;;;2.43;46.15;102695.88;4999888;28;20034;-75
2023/01/27 02:10:26;;;;;;;3.45;0.40;;;;;;;2.33;46.60;102702.53;4999186;28;20029;-75
2023/01/27 02:12:51;;;;;;;0.60;0.20;;;;;;;2.25;46.73;102706.63;4997854;28;20046;-75
2023/01/27 02:15:17;;;;;;;2.90;0.20;;;;;;;2.26;46.96;102698.03;4999677;28;20022;-74
2023/01/27 02:17:44;;;;;;;1.33;0.28;;;;;;;2.39;46.35;102700.94;4999167;28;20144;-75
2023/01/27 02:20:26;;;;;;;1.50;0.20;;;;;;;2.39;46.91;102708.66;5001825;28;20056;-75
2023/01/27 02:23:02;;;;;;;0.50;0.25;;;;;;;2.22;47.26;102705.66;5000105;28;20742;-75
2023/01/27 02:25:34;;;;;;;1.73;0.20;;;;;;;2.15;47.68;102696.91;5000459;28;20026;-75
2023/01/27 02:28:04;;;;;;;0.60;0.20;;;;;;;2.18;47.94;102691.84;5000159;28;20034;-75
2023/01/27 02:30:30;;;;;;;2.03;0.20;;;;;;;2.28;47.53;102692.94;4999536;28;20057;-75
2023/01/27 02:32:56;;;;;;;1.80;0.30;;;;;;;2.10;48.16;102694.22;4981828;28;20061;-75
2023/01/27 02:35:55;;;;;;;2.08;0.77;;;;;;;2.28;48.07;102700.66;5000149;28;20023;-75
2023/01/27 02:38:21;;;;;;;0.55;0.20;;;;;;;2.15;48.21;102696.91;4963857;28;20029;-75
2023/01/27 02:40:51;;;;;;;1.38;0.73;;;;;;;2.35;48.24;102694.81;4994603;28;20034;-75
2023/01/27 02:43:17;;;;;;;3.40;1.00;;;;;;;2.00;49.57;102693.94;4963870;28;20161;-75
2023/01/27 02:45:45;;;;;;;1.88;0.25;;;;;;;2.02;49.75;102694.88;4981184;28;20520;-75
2023/01/27 02:48:11;;;;;;;6.22;1.05;;;;;;;2.30;49.13;102686.97;4981479;28;20034;-76
2023/01/27 02:50:37;;;;;;;1.92;0.45;;;;;;;2.19;49.54;102678.09;4979557;28;20405;-75
2023/01/27 02:53:02;;;;;;;3.78;0.50;;;;;;;1.90;50.47;102680.81;4980579;28;20107;-75
2023/01/27 02:55:28;;;;;;;2.33;0.32;;;;;;;2.15;49.64;102686.59;4980870;28;20132;-76
2023/01/27 02:57:53;;;;;;;2.85;0.38;;;;;;;2.03;50.41;102692.34;4977891;28;20057;-76
2023/01/27 03:00:37;;;;;;;1.42;0.30;;;;;;;1.99;50.26;102694.78;4979902;28;20566;-75
2023/01/27 03:03:03;;;;;;;5.43;0.93;;;;;;;1.82;50.97;102696.94;4980937;28;20046;-78
2023/01/27 03:05:28;;;;;;;1.85;0.35;;;;;;;2.11;50.01;102705.44;4980944;28;20030;-77
2023/01/27 03:07:53;;;;;;;3.33;0.68;;;;;;;1.92;50.44;102709.25;4979752;28;20030;-75
2023/01/27 03:10:19;;;;;;;3.70;0.68;;;;;;;1.76;50.60;102717.44;4980225;28;20149;-77
2023/01/27 03:12:44;;;;;;;0.65;0.20;;;;;;;1.76;51.05;102707.97;4978280;28;20038;-77
2023/01/27 03:18:12;;;;;;;2.60;0.85;;;;;;;1.79;50.06;102715.78;4981022;28;20088;-75
2023/01/27 03:20:40;;;;;;;2.67;0.40;;;;;;;1.70;50.15;102719.00;4978787;28;20096;-77
2023/01/27 03:23:06;;;;;;;1.65;0.30;;;;;;;2.04;49.39;102716.41;4979024;28;20041;-76
2023/01/27 03:25:34;;;;;;;2.55;0.30;;;;;;;1.76;49.96;102726.03;4980231;28;20137;-75
2023/01/27 03:28:01;;;;;;;3.00;0.20;;;;;;;2.01;49.50;102724.09;4978757;28;20045;-77
2023/01/27 03:31:05;;;;;;;0.70;0.22;;;;;;;1.75;50.10;102721.69;4980797;28;20042;-75
2023/01/27 03:33:41;;;;;;;3.72;0.88;;;;;;;1.96;49.86;102723.09;4977784;28;20372;-77
2023/01/27 03:47:34;;;;;;;2.63;0.40;;;;;;;1.93;50.29;102727.34;4978549;28;20375;-75
2023/01/27 03:49:59;;;;;;;2.38;0.40;;;;;;;1.85;50.44;102734.00;4980992;28;20499;-76
2023/01/27 03:52:25;;;;;;;1.67;0.55;;;;;;;2.05;50.30;102731.06;4979381;28;20034;-76
2023/01/27 03:54:50;;;;;;;3.60;0.55;;;;;;;1.98;50.42;102742.06;4980127;28;20042;-76
2023/01/27 03:57:16;;;;;;;0.63;0.25;;;;;;;1.95;50.94;102745.41;4979819;28;20030;-76
2023/01/27 03:59:41;;;;;;;2.08;0.35;;;;;;;1.91;51.25;102739.31;4980355;28;23681;-78
2023/01/27 04:07:36;;;;;;;1.08;0.40;;;;;;;2.11;51.38;102741.56;4979486;28;20038;-76
2023/01/27 04:10:03;;;;;;;1.10;0.20;;;;;;;2.04;51.41;102740.53;4983653;28;20034;-75
2023/01/27 04:12:29;;;;;;;1.63;0.55;;;;;;;2.24;50.93;102746.19;4965492;28;20028;-75
2023/01/27 04:14:54;;;;;;;0.65;0.35;;;;;;;2.07;51.27;102744.88;4983187;28;20042;-76
2023/01/27 04:17:19;;;;;;;0.70;0.30;;;;;;;1.52;52.61;102724.53;4967657;28;20062;-75
2023/01/27 04:19:46;;;;;;;1.15;0.40;;;;;;;1.60;52.79;102726.47;4983741;28;20070;-77
2023/01/27 04:22:14;;;;;;;5.72;0.30;;;;;;;1.58;52.71;102733.28;4983962;28;20034;-77
2023/01/27 04:24:40;;;;;;;1.35;0.50;;;;;;;1.48;52.95;102740.75;4965727;28;20053;-76
2023/01/27 04:27:11;;;;;;;3.05;0.50;;;;;;;1.49;53.30;102747.63;4984928;28;20034;-75
2023/01/27 04:29:39;;;;;;;0.80;0.45;;;;;;;1.43;53.58;102739.72;4982507;28;20500;-76
2023/01/27 04:32:08;;;;;;;2.40;0.75;;;;;;;1.48;53.28;102747.59;4986558;28;20113;-75
2023/01/27 04:34:34;;;;;;;5.82;0.85;;;;;;;1.28;53.99;102747.88;4983158;28;20432;-75
2023/01/27 04:36:59;;;;;;;1.92;0.60;;;;;;;1.50;53.05;102744.22;4984271;28;20097;-76
2023/01/27 04:39:25;;;;;;;3.22;0.50;;;;;;;1.65;53.06;102753.22;4983555;28;20034;-78
2023/01/27 04:41:51;;;;;;;2.72;0.30;;;;;;;1.71;52.98;102756.84;4986056;28;20633;-76
2023/01/27 04:44:20;;;;;;;3.13;0.32;;;;;;;1.66;53.06;102752.38;4979219;28;20038;-75
2023/01/27 04:46:46;;;;;;;3.25;0.65;;;;;;;1.50;53.94;102749.38;4980001;28;20034;-76
2023/01/27 04:49:11;;;;;;;5.72;0.50;;;;;;;1.46;53.48;102749.25;4982821;28;20061;-76
2023/01/27 04:51:37;;;;;;;3.95;0.50;;;;;;;1.51;53.50;102755.44;4968317;28;20042;-76
2023/01/27 04:54:04;;;;;;;3.28;0.47;;;;;;;1.39;53.61;102755.91;4984948;28;20493;-75
2023/01/27 04:56:43;;;;;;;6.05;0.60;;;;;;;1.46;53.52;102763.03;4981028;28;20348;-76
2023/01/27 04:59:14;;;;;;;8.02;0.40;;;;;;;1.23;54.47;102764.91;4984298;28;20038;-77
2023/01/27 05:01:40;;;;;;;5.00;0.50;;;;;;;1.11;54.81;102782.56;4982848;28;20622;-77
2023/01/27 05:04:05;;;;;;;4.30;0.40;;;;;;;0.97;55.19;102776.13;4969959;28;20038;-75
2023/01/27 05:06:31;;;;;;;3.03;0.50;;;;;;;1.28;54.34;102785.63;4982933;28;20035;-76
2023/01/27 05:08:57;;;;;;;3.60;1.17;;;;;;;1.43;53.90;102791.28;4984292;28;20122;-76
2023/01/27 05:11:22;;;;;;;3.65;0.75;;;;;;;1.63;53.25;102785.81;4981765;28;20048;-77
2023/01/27 05:13:48;;;;;;;3.75;0.40;;;;;;;1.59;53.68;102776.25;4982998;28;20055;-76
2023/01/27 05:16:22;;;;;;;7.88;0.60;;;;;;;1.04;54.98;102781.53;4983019;28;20179;-76
2023/01/27 05:18:49;;;;;;;3.25;0.65;;;;;;;1.31;54.22;102778.88;4982759;28;21038;-76
2023/01/27 05:21:29;;;;;;;4.95;0.50;;;;;;;1.27;54.14;102765.88;4982374;28;20038;-76
2023/01/27 05:23:56;;;;;;;3.10;0.50;;;;;;;1.30;54.11;102768.53;4981675;28;20045;-75
2023/01/27 05:26:24;;;;;;;3.72;1.48;;;;;;;1.36;53.88;102773.84;4979188;28;20030;-78
2023/01/27 05:28:51;;;;;;;7.32;0.70;;;;;;;1.37;53.77;102778.16;4980822;28;20043;-75
2023/01/27 05:31:21;;;;;;;6.97;0.50;;;;;;;1.42;53.85;102779.22;4980573;28;20439;-76
2023/01/27 05:33:50;;;;;;;1.48;0.40;;;;;;;1.61;53.42;102780.59;4982402;28;20043;-77
2023/01/27 05:36:17;;;;;;;1.02;0.75;;;;;;;1.54;53.63;102788.13;4980819;28;20041;-76
2023/01/27 05:38:43;;;;;;;2.33;0.45;;;;;;;1.11;54.86;102787.72;4981844;28;20057;-75
2023/01/27 05:41:10;;;;;;;3.78;0.45;;;;;;;1.41;54.14;102780.03;4981301;28;20384;-75
2023/01/27 05:43:38;;;;;;;2.42;0.93;;;;;;;1.55;53.41;102780.47;4978738;28;20176;-75
2023/01/27 05:46:08;;;;;;;1.30;0.50;;;;;;;1.52;53.63;102776.06;4980902;28;20034;-76
2023/01/27 05:48:36;;;;;;;5.45;0.93;;;;;;;1.37;54.40;102775.59;4979306;28;20046;-77
2023/01/27 05:51:03;;;;;;;1.20;0.50;;;;;;;1.34;54.44;102774.66;4981772;28;20034;-76
2023/01/27 05:53:28;;;;;;;3.88;0.50;;;;;;;1.24;54.15;102776.09;4981689;28;20057;-76
2023/01/27 05:55:54;;;;;;;2.20;0.60;;;;;;;1.16;54.36;102780.13;4983763;28;20159;-76
2023/01/27 05:58:20;;;;;;;10.23;1.10;;;;;;;1.22;54.19;102786.34;4977960;28;20069;-76
2023/01/27 06:00:46;;;;;;;4.30;1.20;;;;;;;1.18;54.25;102789.66;4980897;28;20077;-76
2023/01/27 06:03:12;;;;;;;1.85;0.45;;;;;;;1.09;54.77;102787.66;4979395;28;20053;-78
2023/01/27 06:05:38;;;;;;;1.98;1.13;;;;;;;0.97;54.84;102795.03;4982099;28;20038;-77
2023/01/27 06:08:04;;;;;;;3.88;0.60;;;;;;;1.09;54.51;102805.69;4979680;28;20042;-75
2023/01/27 06:10:30;;;;;;;1.20;0.40;;;;;;;1.13;54.80;102801.53;4980367;28;20088;-75
2023/01/27 06:12:57;;;;;;;7.25;0.93;;;;;;;1.07;54.60;102802.19;4980641;28;20034;-75
2023/01/27 06:15:22;;;;;;;4.57;0.60;;;;;;;1.34;53.98;102806.44;4979807;28;20142;-76
2023/01/27 06:17:48;;;;;;;2.53;0.50;;;;;;;1.21;54.41;102806.91;4980443;28;20103;-76
2023/01/27 06:20:14;;;;;;;7.60;1.17;;;;;;;1.08;54.96;102819.41;4981274;28;20476;-76
2023/01/27 06:22:40;;;;;;;2.97;0.63;;;;;;;1.16;54.50;102822.22;4979235;28;20038;-75
2023/01/27 06:25:06;;;;;;;1.98;1.10;;;;;;;1.23;54.41;102818.13;4981476;28;20030;-76
2023/01/27 06:27:31;;;;;;;1.83;0.60;;;;;;;1.41;53.74;102821.28;4981306;28;20089;-77
2023/01/27 06:29:56;;;;;;;6.75;1.20;;;;;;;1.43;53.78;102826.47;4980755;28;20781;-75
2023/01/27 06:32:22;;;;;;;0.88;0.40;;;;;;;1.40;53.82;102842.72;4980084;28;20061;-76
2023/01/27 06:34:47;;;;;;;2.10;0.60;;;;;;;1.36;53.96;102840.84;4980093;28;20499;-76
2023/01/27 06:37:13;;;;;;;3.95;0.60;;;;;;;1.37;53.88;102844.28;4981897;28;20478;-76
2023/01/27 06:39:38;;;;;;;4.07;0.68;;;;;;;1.54;53.43;102845.72;4978106;28;20051;-75
2023/01/27 06:42:06;;;;;;;6.43;0.55;;;;;;;1.46;53.79;102845.50;4982297;28;20049;-75
2023/01/27 06:44:32;;;;;;;2.30;1.17;;;;;;;1.49;53.67;102843.00;4979458;28;20107;-77
2023/01/27 06:46:57;;;;;;;3.08;0.30;;;;;;;1.49;53.69;102843.00;4982307;28;20524;-76
2023/01/27 06:49:23;;;;;;;1.05;0.50;;;;;;;1.61;53.47;102849.34;4981098;28;20057;-76
2023/01/27 06:51:48;;;;;;;3.15;0.45;;;;;;;1.72;53.50;102846.22;4981595;28;20086;-76
2023/01/27 06:54:13;;;;;;;3.15;0.52;;;;;;;1.77;53.05;102848.94;4962787;28;20034;-76
2023/01/27 06:56:39;;;;;;;5.07;0.57;;;;;;;1.62;53.17;102843.38;4979600;28;20047;-76
2023/01/27 06:59:04;;;;;;;2.95;0.98;;;;;;;1.72;52.83;102846.22;4982855;28;20042;-78
2023/01/27 07:01:30;;;;;;;4.28;1.17;;;;;;;1.67;52.90;102852.97;4978853;28;20137;-76
2023/01/27 07:03:55;;;;;;;3.67;0.65;;;;;;;1.77;52.50;102853.22;4979075;28;20038;-76
2023/01/27 07:06:21;;;;;;;2.72;0.73;;;;;;;1.54;53.05;102860.31;4978283;28;20057;-77
2023/01/27 07:08:49;;;;;;;1.88;0.68;;;;;;;1.76;52.39;102866.97;4978202;28;20125;-76
2023/01/27 07:11:14;;;;;;;2.33;0.90;;;;;;;1.76;52.74;102867.81;4979717;28;20500;-77
2023/01/27 07:13:40;;;;;;;2.40;0.80;;;;;;;1.76;52.21;102866.97;4978361;28;20034;-77
2023/01/27 07:16:06;;;;;;;9.90;0.90;;;;;;;1.70;52.55;102870.22;4981214;28;20497;-77
2023/01/27 07:18:32;;;;;;;3.20;0.57;;;;;;;1.84;52.14;102865.44;4978395;28;20048;-76
2023/01/27 07:20:58;;;;;;;1.10;0.55;;;;;;;2.02;51.61;102865.09;4980704;28;20041;-76
2023/01/27 07:23:23;;;;;;;1.73;0.55;;;;;;;2.02;51.18;102870.25;4978344;28;20034;-78
2023/01/27 07:25:49;;;;;;;2.45;0.60;;;;;;;2.02;51.43;102875.41;4979844;28;20512;-78
2023/01/27 07:28:15;;;;;;;2.35;0.60;;;;;;;1.93;51.53;102882.09;4978080;28;20038;-77
2023/01/27 07:30:42;;;;;;;1.20;0.40;;;;;;;1.96;51.15;102881.28;4980420;28;20030;-76
2023/01/27 07:33:10;;;;;;;2.85;0.68;;;;;;;2.03;50.74;102890.06;4978216;28;20389;-78
2023/01/27 07:35:37;;;;;;;2.55;0.50;;;;;;;1.80;51.35;102887.72;4979227;28;20591;-76
2023/01/27 07:38:04;;;;;;;1.23;0.63;;;;;;;1.90;50.96;102889.72;4980685;28;20125;-77
2023/01/27 07:40:30;;;;;;;2.05;0.70;;;;;;;2.07;50.90;102891.91;4973201;28;20510;-77
2023/01/27 07:42:59;;;;;;;4.43;0.70;;;;;;;2.15;50.41;102892.97;4980197;28;20141;-75
2023/01/27 07:45:27;;;;;;;1.73;0.80;;;;;;;2.09;50.48;102890.25;4984573;28;20030;-78
2023/01/27 07:47:53;;;;;;;1.98;0.80;;;;;;;2.10;50.74;102891.97;4984083;28;20124;-76
2023/01/27 07:50:20;;;;;;;2.10;0.80;;;;;;;2.20;50.00;102891.41;4983162;28;20042;-75
2023/01/27 07:52:46;;;;;;;1.50;0.95;;;;;;;2.10;50.18;102895.44;4984053;28;20045;-76
2023/01/27 07:55:11;;;;;;;2.75;0.70;;;;;;;2.12;50.17;102900.66;4966766;28;20038;-77
2023/01/27 07:57:36;;;;;;;1.52;1.17;;;;;;;2.17;49.67;102896.47;4982613;28;20088;-76
2023/01/27 08:00:04;;;;;;;2.10;0.82;;;;;;;2.22;49.89;102888.84;4987141;28;20042;-76
2023/01/27 08:02:37;;;;;;;5.88;1.52;;;;;;;2.23;49.75;102895.78;4983242;28;20416;-76
2023/01/27 08:05:03;;;;;;;1.67;1.10;;;;;;;2.24;49.74;102903.56;4981599;28;20030;-76
2023/01/27 08:07:28;;;;;;;1.60;1.10;;;;;;;2.17;49.73;102914.53;4980930;28;20708;-78
2023/01/27 08:09:56;;;;;;;1.70;1.10;;;;;;;1.92;50.62;102915.56;4982898;28;20072;-78
2023/01/27 08:12:21;;;;;;;3.13;1.40;;;;;;;2.10;49.93;102923.81;4983298;28;20057;-76
2023/01/27 08:14:46;;;;;;;4.28;1.35;;;;;;;2.19;50.09;102924.91;4982301;28;20551;-76
2023/01/27 08:17:12;;;;;;;1.58;1.05;;;;;;;2.22;49.84;102935.31;4985034;28;20034;-78
2023/01/27 08:19:37;;;;;;;3.45;1.45;;;;;;;2.12;50.19;102919.56;4981856;28;20475;-76
2023/01/27 08:22:03;;;;;;;1.48;0.90;;;;;;;2.22;50.08;102928.47;4983044;28;20178;-78
2023/01/27 08:24:28;;;;;;;2.25;1.27;;;;;;;2.33;49.71;102934.78;4981615;28;20038;-77
2023/01/27 08:26:54;;;;;;;1.75;1.23;;;;;;;2.26;49.94;102938.00;4980631;28;20030;-77
2023/01/27 08:29:20;;;;;;;1.80;0.90;;;;;;;2.24;49.97;102944.88;4980179;28;20050;-76
2023/01/27 08:31:45;;;;;;;4.25;0.77;;;;;;;1.88;49.92;102940.38;4979215;28;20098;-78
2023/01/27 08:34:11;;;;;;;2.47;0.82;;;;;;;1.99;49.82;102937.25;4980358;28;20042;-78
2023/01/27 08:36:40;;;;;;;2.47;0.63;;;;;;;2.18;49.12;102938.66;4979363;28;20046;-78
2023/01/27 08:39:06;;;;;;;1.67;0.52;;;;;;;2.11;49.05;102935.91;4982724;28;20467;-78
2023/01/27 08:41:31;;;;;;;1.83;0.40;;;;;;;2.04;49.35;102935.66;4980198;28;20038;-77
2023/01/27 08:43:57;;;;;;;0.98;0.50;;;;;;;1.89;50.00;102946.44;4980855;28;20045;-78
2023/01/27 08:46:22;;;;;;;3.22;0.80;;;;;;;2.10;49.64;102948.75;4983222;28;20588;-76
2023/01/27 08:48:49;;;;;;;2.17;0.98;;;;;;;1.84;50.61;102954.03;4983734;28;20738;-79
2023/01/27 08:51:15;;;;;;;3.47;1.95;;;;;;;1.75;51.38;102943.41;4981523;28;20069;-76
2023/01/27 08:53:40;;;;;;;1.85;1.27;;;;;;;1.86;50.84;102946.31;4980495;28;20524;-76
2023/01/27 08:56:09;;;;;;;2.90;1.67;;;;;;;2.12;49.83;102949.66;4984175;28;20037;-78
2023/01/27 08:58:35;;;;;;;2.42;1.02;;;;;;;2.18;50.11;102961.88;4978358;28;21373;-79
2023/01/27 09:01:02;;;;;;;1.25;0.90;;;;;;;2.01;50.41;102956.22;4983601;28;20296;-76
2023/01/27 09:03:28;;;;;;;1.38;0.95;;;;;;;2.23;49.73;102953.41;4966663;28;20041;-79
2023/01/27 09:05:54;;;;;;;5.53;1.13;;;;;;;2.27;49.99;102951.81;4980726;28;20030;-77
2023/01/27 09:08:19;;;;;;;3.08;1.50;;;;;;;2.27;50.00;102950.09;4979516;28;20039;-77
2023/01/27 09:10:45;;;;;;;2.15;1.25;;;;;;;2.12;50.07;102959.97;4981654;28;20999;-76
2023/01/27 09:13:10;;;;;;;1.75;0.85;;;;;;;2.08;50.15;102951.25;4980211;28;20204;-76
2023/01/27 09:15:37;;;;;;;1.10;0.60;;;;;;;2.07;49.70;102966.72;4979215;28;20435;-79
2023/01/27 09:18:04;;;;;;;1.23;0.63;;;;;;;2.01;49.58;102956.22;4982908;28;20042;-77
2023/01/27 09:20:30;;;;;;;2.17;0.80;;;;;;;1.93;49.52;102954.28;4982236;28;20057;-76
2023/01/27 09:22:56;;;;;;;1.33;0.45;;;;;;;2.12;49.21;102949.66;4960934;28;20256;-76
2023/01/27 09:25:22;;;;;;;3.08;0.90;;;;;;;2.25;49.15;102956.91;4980781;28;20057;-77
2023/01/27 09:27:47;;;;;;;1.42;0.60;;;;;;;2.38;48.89;102952.09;4978701;28;20038;-76
2023/01/27 09:30:15;;;;;;;4.68;0.70;;;;;;;2.16;49.31;102948.91;4981263;28;20042;-77
2023/01/27 09:32:41;;;;;;;1.00;0.43;;;;;;;2.28;49.09;102957.00;4946947;28;20461;-75
2023/01/27 09:35:07;;;;;;;3.05;0.70;;;;;;;2.27;48.78;102957.84;4980717;28;20065;-76
2023/01/27 09:37:40;;;;;;;1.10;0.63;;;;;;;2.25;49.51;102956.91;4978581;28;20038;-75
2023/01/27 09:40:17;;;;;;;2.22;0.80;;;;;;;2.41;49.23;102962.50;4981247;28;20151;-77
2023/01/27 09:42:51;;;;;;;2.85;0.85;;;;;;;2.02;50.32;102965.69;4979733;28;20038;-76
2023/01/27 09:45:16;;;;;;;2.10;0.75;;;;;;;2.15;50.60;102965.22;4979394;28;20051;-76
2023/01/27 09:47:56;;;;;;;5.68;1.17;;;;;;;2.25;50.92;102977.56;4980901;28;20723;-76
2023/01/27 09:50:43;;;;;;;2.60;0.47;;;;;;;2.14;51.61;102966.06;4960627;28;20058;-75
2023/01/27 09:53:38;;;;;;;1.65;0.60;;;;;;;2.30;52.12;102973.41;4980100;28;20038;-76
2023/01/27 09:56:18;;;;;;;1.60;0.50;;;;;;;2.51;51.41;102974.81;4980086;28;20438;-75
2023/01/27 09:59:03;;;;;;;3.30;0.40;;;;;;;2.56;51.49;102957.75;4979750;28;20046;-77
2023/01/27 10:01:46;;;;;;;0.80;0.38;;;;;;;2.72;51.21;102959.91;4975296;28;20038;-77
2023/01/27 10:04:31;;;;;;;1.35;0.40;;;;;;;2.59;50.96;102972.47;4974574;28;20136;-76
2023/01/27 10:07:04;;;;;;;3.17;0.55;;;;;;;2.88;50.49;102966.34;4973519;28;20253;-76
2023/01/27 10:09:49;;;;;;;1.45;0.60;;;;;;;2.97;50.85;102960.53;4971489;28;20104;-75
2023/01/27 10:12:33;;;;;;;4.50;0.40;;;;;;;3.47;50.04;102960.03;4972577;28;20109;-76
2023/01/27 10:15:16;;;;;;;2.78;0.30;;;;;;;3.15;49.19;102965.28;4974012;28;20050;-77
2023/01/27 10:18:06;;;;;;;2.40;0.80;;;;;;;3.05;49.28;102964.19;4974197;28;20046;-76
2023/01/27 10:20:41;;;;;;;0.95;0.40;;;;;;;3.21;48.83;102968.03;4976945;28;20539;-76
2023/01/27 10:23:46;;;;;;;0.90;0.25;;;;;;;3.22;49.06;102966.31;4976753;28;20058;-76
2023/01/27 10:26:30;;;;;;;4.82;0.47;;;;;;;3.14;48.48;102955.81;4977436;28;20060;-78
2023/01/27 10:29:22;;;;;;;2.15;0.30;;;;;;;3.00;48.61;102959.75;4977551;28;20040;-76
2023/01/27 10:32:06;;;;;;;1.80;0.30;;;;;;;2.91;48.56;102953.53;4979830;28;20044;-76
2023/01/27 10:34:41;;;;;;;1.88;0.35;;;;;;;2.74;49.59;102958.25;4977171;28;20050;-76
2023/01/27 10:37:37;;;;;;;1.20;0.30;;;;;;;2.90;49.28;102964.69;4980602;28;20042;-76
2023/01/27 10:40:19;;;;;;;2.45;0.47;;;;;;;2.71;49.99;102960.75;4979277;28;20379;-76
2023/01/27 10:43:00;;;;;;;4.80;0.30;;;;;;;2.60;49.88;102962.19;4977076;28;20181;-75
2023/01/27 10:45:32;;;;;;;0.90;0.20;;;;;;;2.30;50.20;102960.50;4977313;28;20030;-74
2023/01/27 10:48:36;;;;;;;2.40;0.57;;;;;;;2.39;49.75;102959.88;4977737;28;20073;-76
2023/01/27 10:51:15;;;;;;;1.83;0.73;;;;;;;2.50;49.37;102973.94;4956923;28;20141;-75
2023/01/27 10:54:14;;;;;;;60.95;23.83;;;;;;;2.76;49.06;102966.91;4958849;28;20085;-77
2023/01/27 10:56:45;;;;;;;1.67;0.35;;;;;;;2.79;48.27;102960.06;4942864;28;20129;-76
2023/01/27 10:59:22;;;;;;;7.55;0.30;;;;;;;2.78;48.47;102956.63;4977792;28;20042;-74
2023/01/27 11:02:01;;;;;;;2.70;0.30;;;;;;;2.73;49.27;102960.78;4976011;28;20045;-76
2023/01/27 11:04:39;;;;;;;0.60;0.20;;;;;;;2.62;49.13;102977.69;4975284;28;20416;-76
2023/01/27 11:07:05;;;;;;;1.55;0.20;;;;;;;2.54;49.10;102959.44;4979129;28;20037;-76
2023/01/27 11:09:38;;;;;;;0.40;0.15;;;;;;;2.58;48.21;102958.69;4977156;28;20141;-74
2023/01/27 11:12:09;;;;;;;2.85;0.20;;;;;;;2.79;48.56;102960.06;4977928;28;20049;-76
2023/01/27 11:14:49;;;;;;;0.45;0.10;;;;;;;2.48;49.05;102960.13;4975156;28;21574;-76
2023/01/27 11:17:30;;;;;;;0.90;0.20;;;;;;;2.82;48.68;102957.56;4978000;28;20041;-76
2023/01/27 11:20:23;;;;;;;1.40;0.10;;;;;;;2.65;48.79;102952.84;4976515;28;20140;-78
2023/01/27 11:23:13;;;;;;;0.03;0.00;;;;;;;2.39;48.19;102956.44;4979617;28;20050;-76
2023/01/27 11:26:15;;;;;;;3.15;0.10;;;;;;;2.27;48.20;102955.25;4978461;28;20389;-76
2023/01/27 11:29:18;;;;;;;0.40;0.20;;;;;;;2.35;48.60;102955.47;4977061;28;20117;-75
2023/01/27 11:31:56;;;;;;;;;;;;;;;2.55;48.13;102956.00;4978992;28;20038;-76
2023/01/27 11:34:49;;;;;;;0.63;0.10;;;;;;;2.70;47.34;102950.38;4975970;28;20079;-75
2023/01/27 11:37:27;;;;;;;0.35;0.20;;;;;;;2.79;46.58;102944.59;4975588;28;20031;-75
2023/01/27 11:39:53;;;;;;;0.95;0.10;;;;;;;2.79;46.56;102949.75;4976916;28;20577;-76
2023/01/27 11:42:20;;;;;;;0.73;0.10;;;;;;;2.70;46.95;102940.91;4977330;28;20121;-77
2023/01/27 11:44:46;;;;;;;0.20;0.00;;;;;;;3.03;45.75;102939.16;4978203;28;20046;-76
2023/01/27 11:47:36;;;;;;;0.52;0.10;;;;;;;3.11;45.27;102935.94;4977410;28;20673;-76
2023/01/27 11:50:03;;;;;;;0.08;0.00;;;;;;;3.20;44.63;102927.50;4978413;28;20404;-75
2023/01/27 11:52:30;;;;;;;0.15;0.00;;;;;;;3.25;44.57;102935.34;4975620;28;20034;-77
2023/01/27 11:55:15;;;;;;;0.45;0.10;;;;;;;3.09;45.00;102941.88;4975864;28;20889;-75
2023/01/27 11:57:51;;;;;;;0.00;0.00;;;;;;;3.11;44.26;102933.34;4976248;28;20045;-75
2023/01/27 12:00:40;;;;;;;0.80;0.00;;;;;;;2.86;44.61;102930.97;4977850;28;20035;-75
2023/01/27 12:03:19;;;;;;;0.20;0.10;;;;;;;2.66;44.49;102927.88;4978301;28;20038;-75
2023/01/27 12:05:54;;;;;;;0.20;0.10;;;;;;;2.92;44.41;102925.97;4958777;28;20478;-76
2023/01/27 12:08:42;;;;;;;0.10;0.10;;;;;;;2.93;44.48;102922.53;4975998;28;20037;-75
2023/01/27 12:11:16;;;;;;;0.10;0.00;;;;;;;2.80;44.18;102931.72;4978144;28;20026;-76
2023/01/27 12:13:47;;;;;;;0.50;0.10;;;;;;;2.44;44.75;102931.59;4977637;28;20053;-75
2023/01/27 12:16:13;;;;;;;0.38;0.20;;;;;;;2.42;45.14;102934.16;4978554;28;20053;-75